メインページ
METAR-TAF:

METAR-TAF

空港 :

ノーフォーク島空港

ノーフォーク島, オーストラリア

緯度: 29-02S, 経度: 167-56E, 海抜: 113m

現時点の気象観測

当レポートは35分前の05:30(UTC)に作成
の風 13kt
気温 15°C
湿度 88%
気圧 1013 hPa
視程10km以上
高度1000ftの雲は散在している
高度1400ftの千切れ雲あり
高度2100ftの曇り
弱いにわか雨

METAR: YSNF 210530Z AUTO 18013KT 9999 -SHRA SCT010 BKN014 OVC021 15/13 Q1013

時間: 16:05 (06:05 UTC)

予報

当レポートは1時間20分前の04:45(UTC)に作成
予報は21日の 05時(UTC)から 22日の 06時(UTC)まで有効
南/南西の風 20kt、最大30ktの突風を伴う
視程10km以上
高度2000ftの千切れ雲あり
高度4000ftの千切れ雲あり
弱いにわか雨
21日の 12時(UTC)から 21日の 14時(UTC)まで徐々に
の風 15kt、最大25ktの突風を伴う
視程10km以上
高度2000ftの雲は散在している
高度3500ftの千切れ雲あり
弱いにわか雨
21日の 21時(UTC)から 21日の 23時(UTC)まで徐々に
南/南西の風 22kt、最大35ktの突風を伴う
視程10km以上
高度2000ftの雲はほとんどない
高度3500ftの雲は散在している
21日の 05時(UTC)から 21日の 12時(UTC)まで一時的に
視程: 4000m
高度800ftの千切れ雲あり
にわか雨

TAF: YSNF 210445Z 2105/2206 20020G30KT 9999 -SHRA BKN020 BKN040 BECMG 2112/2114 19015G25KT 9999 -SHRA SCT020 BKN035 BECMG 2121/2123 21022G35KT 9999 FEW020 SCT035 TEMPO 2105/2112 4000 SHRA BKN008

4,000以上の空港の気象観測と天気予報(METAR報とTAF報)

利用可能な観測所は地図上に黄色い丸と赤い丸で示す。

丸の上にカーソルを重ねると観測所名を参照できる。

次にクリックすると気象観測と天気予報を参照できる。

マップの切り替え:黒色「×」印の緑ボタンをクリックして拡大、「-」印の緑ボタンをクリックして縮小、緑色の三角印をクリックして隣りの地図に切り替え


METAR-TAF: